Time;durP1;ratioP1;P1;durP2;ratioP2;P2;SDS_P1;SDS_P2;PMS_P1;PMS_P2;Temp;Humidity;BMP_temperature;BMP_pressure;BME280_temperature;BME280_humidity;BME280_pressure;Samples;Min_cycle;Max_cycle;Signal;HPM_P1;HPM_P2
2023/07/10 00:01:55;;;;;;;3.47;1.63;;;28.00;99.90;;;;;;4996553;28;20194;-90
2023/07/10 00:04:29;;;;;;;5.47;2.03;;;27.90;99.90;;;;;;4999692;28;20242;-90
2023/07/10 00:07:01;;;;;;;3.80;2.10;;;27.70;99.90;;;;;;5003348;28;20230;-91
2023/07/10 00:09:33;;;;;;;2.47;1.90;;;27.40;99.90;;;;;;5004648;28;20281;-89
2023/07/10 00:12:06;;;;;;;3.73;2.00;;;27.00;99.90;;;;;;4997312;28;20206;-91
2023/07/10 00:14:38;;;;;;;4.60;2.03;;;27.40;99.90;;;;;;4996567;28;20293;-88
2023/07/10 00:17:11;;;;;;;3.40;2.00;;;27.70;99.90;;;;;;4993900;28;20569;-88
2023/07/10 00:19:45;;;;;;;5.30;2.10;;;27.50;99.90;;;;;;4994684;28;20211;-88
2023/07/10 00:22:17;;;;;;;4.47;2.00;;;27.50;99.90;;;;;;4993968;28;20677;-89
2023/07/10 00:24:49;;;;;;;3.03;2.10;;;27.60;99.90;;;;;;4995568;28;20220;-88
2023/07/10 00:27:21;;;;;;;3.77;1.97;;;27.80;99.90;;;;;;4994561;28;20309;-87
2023/07/10 00:29:52;;;;;;;4.23;1.90;;;27.80;99.90;;;;;;4995234;28;20202;-88
2023/07/10 00:32:24;;;;;;;2.23;1.43;;;27.90;99.90;;;;;;4993386;28;20218;-88
2023/07/10 00:34:58;;;;;;;2.30;1.80;;;28.00;99.90;;;;;;4982852;28;20249;-89
2023/07/10 00:37:30;;;;;;;3.22;1.60;;;28.20;99.90;;;;;;4994125;28;20206;-88
2023/07/10 00:40:02;;;;;;;4.03;2.30;;;28.20;99.90;;;;;;4990674;28;20190;-88
2023/07/10 00:42:34;;;;;;;2.77;1.80;;;28.00;99.90;;;;;;4973916;28;20297;-88
2023/07/10 00:45:09;;;;;;;2.20;1.87;;;27.20;99.90;;;;;;4975794;28;20207;-90
2023/07/10 00:47:45;;;;;;;3.07;1.83;;;27.00;99.90;;;;;;4975485;28;20325;-90
2023/07/10 00:50:26;;;;;;;7.03;2.03;;;27.10;99.90;;;;;;4990660;28;20199;-91
2023/07/10 00:53:02;;;;;;;7.33;2.10;;;27.20;99.90;;;;;;4994110;28;20599;-89
2023/07/10 00:55:36;;;;;;;3.27;1.67;;;27.30;99.90;;;;;;4993359;28;20216;-90
2023/07/10 00:58:31;;;;;;;2.30;1.63;;;27.10;99.90;;;;;;4994646;28;20225;-89
2023/07/10 01:01:09;;;;;;;3.03;1.80;;;27.70;99.90;;;;;;4994537;28;20233;-90
2023/07/10 01:03:42;;;;;;;4.10;2.10;;;28.30;99.90;;;;;;4994939;28;20205;-90
2023/07/10 01:06:19;;;;;;;6.87;2.10;;;28.90;99.90;;;;;;4994472;28;20209;-90
2023/07/10 01:08:59;;;;;;;3.43;2.03;;;29.30;99.90;;;;;;4972952;28;20206;-90
2023/07/10 01:11:31;;;;;;;3.25;2.10;;;29.40;99.90;;;;;;4991438;28;20352;-90
2023/07/10 01:14:03;;;;;;;2.83;1.90;;;29.30;99.90;;;;;;4993464;28;20297;-90
2023/07/10 01:16:36;;;;;;;6.00;2.25;;;29.40;99.90;;;;;;4982490;28;20306;-89
2023/07/10 01:19:13;;;;;;;2.55;1.80;;;29.80;99.90;;;;;;4976182;28;20223;-89
2023/07/10 01:21:50;;;;;;;4.40;1.90;;;29.60;99.90;;;;;;4974310;28;20217;-88
2023/07/10 01:24:22;;;;;;;2.80;2.03;;;29.50;99.90;;;;;;4979021;28;20229;-88
2023/07/10 01:26:56;;;;;;;5.20;2.28;;;29.90;99.90;;;;;;4992511;28;20238;-90
2023/07/10 01:29:42;;;;;;;5.30;1.98;;;29.50;99.90;;;;;;4993216;28;20753;-89
2023/07/10 01:32:16;;;;;;;4.00;1.50;;;29.70;99.90;;;;;;4995565;28;20223;-88
2023/07/10 01:34:52;;;;;;;3.63;1.83;;;29.60;99.90;;;;;;4992967;28;20288;-89
2023/07/10 01:37:26;;;;;;;2.03;1.70;;;29.50;99.90;;;;;;4993812;28;20213;-88
2023/07/10 01:39:58;;;;;;;2.33;1.77;;;29.70;99.90;;;;;;4992777;28;20237;-88
2023/07/10 01:42:29;;;;;;;4.28;1.98;;;29.70;99.90;;;;;;4994215;28;20211;-88
2023/07/10 01:45:00;;;;;;;3.95;2.08;;;29.70;99.90;;;;;;4993347;28;20237;-87
2023/07/10 01:47:32;;;;;;;6.88;2.00;;;29.70;99.90;;;;;;4993356;28;20269;-89
2023/07/10 01:50:04;;;;;;;3.05;1.90;;;29.50;99.90;;;;;;4996233;28;20276;-90
2023/07/10 01:52:39;;;;;;;4.63;2.08;;;29.40;99.90;;;;;;4980974;28;20226;-89
2023/07/10 01:55:13;;;;;;;2.67;2.03;;;29.20;99.90;;;;;;4982544;28;20300;-90
2023/07/10 01:57:45;;;;;;;2.50;1.80;;;29.30;99.90;;;;;;4995203;28;20214;-91
2023/07/10 02:00:17;;;;;;;3.53;1.67;;;29.10;99.90;;;;;;4994640;28;20210;-89
2023/07/10 02:02:49;;;;;;;2.67;2.10;;;29.40;99.90;;;;;;4995845;28;20203;-90
2023/07/10 02:05:20;;;;;;;4.75;1.77;;;29.70;99.90;;;;;;4993927;28;20281;-90
2023/07/10 02:07:55;;;;;;;3.25;1.88;;;29.90;99.90;;;;;;4995670;28;20695;-90
2023/07/10 02:10:26;;;;;;;2.70;1.92;;;28.90;99.90;;;;;;4981379;28;20214;-90
2023/07/10 02:13:12;;;;;;;3.35;2.55;;;28.30;99.90;;;;;;4979176;28;20218;-89
2023/07/10 02:15:44;;;;;;;5.43;2.22;;;28.00;99.90;;;;;;4996463;28;20217;-89
2023/07/10 02:18:16;;;;;;;2.38;1.63;;;27.90;99.90;;;;;;5000486;28;20218;-90
2023/07/10 02:20:50;;;;;;;3.42;1.92;;;27.60;99.90;;;;;;5003911;28;20221;-94
2023/07/10 02:23:25;;;;;;;3.17;1.90;;;27.30;99.90;;;;;;5002181;28;20658;-88
2023/07/10 02:25:57;;;;;;;4.70;2.00;;;27.10;99.90;;;;;;4998164;28;20237;-89
2023/07/10 02:28:29;;;;;;;2.37;1.73;;;26.80;99.90;;;;;;4992593;28;20362;-88
2023/07/10 02:31:06;;;;;;;4.00;1.70;;;26.60;99.90;;;;;;4996874;28;20207;-89
2023/07/10 02:33:38;;;;;;;1.90;1.70;;;26.30;99.90;;;;;;4996071;28;20262;-89
2023/07/10 02:36:10;;;;;;;2.23;1.73;;;26.10;99.90;;;;;;4991708;28;20211;-89
2023/07/10 02:38:43;;;;;;;2.67;1.70;;;25.80;99.90;;;;;;4989327;28;20220;-93
2023/07/10 02:41:15;;;;;;;4.57;1.73;;;25.60;99.90;;;;;;5004458;28;20214;-90
2023/07/10 02:43:48;;;;;;;171.63;7.50;;;25.50;99.90;;;;;;5008947;28;20298;-90
2023/07/10 02:46:19;;;;;;;6.03;1.80;;;25.50;99.90;;;;;;5010013;28;20260;-92
2023/07/10 02:48:51;;;;;;;3.33;1.80;;;25.20;99.90;;;;;;5022045;28;20233;-90
2023/07/10 02:51:23;;;;;;;4.70;2.00;;;25.10;99.90;;;;;;5006390;28;20219;-94
2023/07/10 02:53:57;;;;;;;4.20;1.60;;;25.10;99.90;;;;;;5009795;28;20211;-92
2023/07/10 02:56:30;;;;;;;2.73;1.80;;;25.00;99.90;;;;;;5005839;28;20209;-93
2023/07/10 02:59:02;;;;;;;4.07;2.10;;;24.80;99.90;;;;;;4983937;28;20210;-93
2023/07/10 03:01:34;;;;;;;5.20;2.30;;;24.70;99.90;;;;;;4999992;28;20301;-91
2023/07/10 03:04:09;;;;;;;2.53;2.00;;;24.70;99.90;;;;;;4990637;28;20230;-92
2023/07/10 03:06:49;;;;;;;3.90;1.97;;;24.70;99.90;;;;;;5005500;28;20214;-92
2023/07/10 03:09:31;;;;;;;2.60;1.80;;;24.60;99.90;;;;;;4988450;28;20321;-90
2023/07/10 03:12:03;;;;;;;2.40;1.73;;;24.50;99.90;;;;;;4999039;28;20293;-87
2023/07/10 03:14:35;;;;;;;2.77;1.67;;;24.50;99.90;;;;;;4986796;28;20237;-89
2023/07/10 03:17:07;;;;;;;4.07;2.13;;;24.40;99.90;;;;;;4998344;28;20269;-88
2023/07/10 03:19:39;;;;;;;4.13;1.70;;;24.20;99.90;;;;;;4992789;28;20206;-89
2023/07/10 03:22:12;;;;;;;3.27;2.03;;;24.10;99.90;;;;;;4994270;28;20206;-89
2023/07/10 03:24:47;;;;;;;4.27;2.10;;;24.00;99.90;;;;;;4990506;28;20230;-88
2023/07/10 03:27:18;;;;;;;3.90;1.83;;;23.90;99.90;;;;;;4997482;28;20203;-89
2023/07/10 03:29:49;;;;;;;3.17;1.90;;;23.80;99.90;;;;;;4998140;28;20253;-89
2023/07/10 03:32:21;;;;;;;3.43;1.97;;;23.80;99.90;;;;;;4991867;28;20195;-89
2023/07/10 03:34:52;;;;;;;5.07;2.37;;;23.70;99.90;;;;;;5000518;28;20231;-88
2023/07/10 03:37:23;;;;;;;3.60;2.10;;;23.60;99.90;;;;;;4998495;28;20212;-88
2023/07/10 03:39:59;;;;;;;5.97;3.20;;;23.60;99.90;;;;;;4997509;28;20210;-89
2023/07/10 03:42:32;;;;;;;3.13;2.13;;;23.30;99.90;;;;;;4985160;28;20211;-88
2023/07/10 03:45:05;;;;;;;2.57;1.80;;;23.10;99.90;;;;;;5005730;28;21780;-89
2023/07/10 03:47:36;;;;;;;3.87;2.30;;;23.00;99.90;;;;;;4989550;28;20246;-88
2023/07/10 03:50:12;;;;;;;3.10;2.00;;;22.90;99.90;;;;;;4991122;28;20219;-89
2023/07/10 03:52:44;;;;;;;2.80;1.90;;;22.80;99.90;;;;;;4996559;28;20292;-88
2023/07/10 03:55:19;;;;;;;2.70;2.17;;;22.70;99.90;;;;;;5004424;28;20221;-89
2023/07/10 03:57:50;;;;;;;2.83;2.27;;;22.50;99.90;;;;;;5014706;28;20223;-88
2023/07/10 04:00:23;;;;;;;4.10;2.13;;;22.40;99.90;;;;;;4977849;28;20727;-88
2023/07/10 04:02:55;;;;;;;5.00;2.27;;;22.30;99.90;;;;;;4977473;28;20577;-88
2023/07/10 04:05:26;;;;;;;5.13;2.10;;;22.20;99.90;;;;;;4987104;28;20234;-88
2023/07/10 04:07:58;;;;;;;4.77;2.33;;;22.10;99.90;;;;;;4988644;28;20230;-88
2023/07/10 04:10:32;;;;;;;3.60;2.53;;;22.10;99.90;;;;;;4994624;28;21789;-89
2023/07/10 04:13:04;;;;;;;2.43;1.93;;;22.00;99.90;;;;;;4994698;28;20210;-89
2023/07/10 04:15:35;;;;;;;4.23;2.27;;;22.00;99.90;;;;;;4995217;28;20286;-88
2023/07/10 04:18:07;;;;;;;4.23;2.20;;;21.90;99.90;;;;;;4983673;28;20346;-89
2023/07/10 04:20:38;;;;;;;6.20;2.03;;;21.80;99.90;;;;;;4988875;28;20202;-89
2023/07/10 04:23:11;;;;;;;4.53;2.40;;;21.70;99.90;;;;;;5000163;28;20213;-87
2023/07/10 04:25:46;;;;;;;6.17;2.60;;;21.80;99.90;;;;;;5002256;28;20226;-89
2023/07/10 04:28:18;;;;;;;5.03;2.43;;;21.80;99.90;;;;;;5008655;28;20761;-88
2023/07/10 04:30:50;;;;;;;6.40;2.30;;;21.60;99.90;;;;;;5022359;28;20211;-89
2023/07/10 04:33:23;;;;;;;3.97;2.50;;;21.50;99.90;;;;;;5000170;28;20273;-88
2023/07/10 04:35:59;;;;;;;5.93;2.60;;;21.30;99.90;;;;;;5005683;28;20244;-87
2023/07/10 04:38:32;;;;;;;4.13;2.53;;;21.20;99.90;;;;;;4995887;28;20305;-88
2023/07/10 04:41:13;;;;;;;4.37;2.80;;;21.10;99.90;;;;;;4995014;28;20206;-88
2023/07/10 04:43:45;;;;;;;4.10;2.80;;;21.00;99.90;;;;;;4991277;28;20206;-88
2023/07/10 04:46:19;;;;;;;3.60;2.30;;;21.00;99.90;;;;;;4977132;28;20215;-88
2023/07/10 04:48:52;;;;;;;5.67;2.57;;;20.90;99.90;;;;;;4988292;28;20285;-89
2023/07/10 04:51:24;;;;;;;4.80;2.20;;;20.70;99.90;;;;;;4994600;28;20270;-87
2023/07/10 04:53:56;;;;;;;3.60;2.27;;;20.60;99.90;;;;;;4999299;28;20228;-87
2023/07/10 04:56:31;;;;;;;5.30;2.77;;;20.50;99.90;;;;;;5009218;28;20233;-88
2023/07/10 04:59:06;;;;;;;3.13;2.23;;;20.40;99.90;;;;;;4986453;28;20205;-89
2023/07/10 05:01:38;;;;;;;3.60;2.30;;;20.20;99.90;;;;;;4982536;28;20206;-89
2023/07/10 05:04:10;;;;;;;3.27;1.90;;;20.10;99.90;;;;;;4993053;28;20213;-88
2023/07/10 05:06:42;;;;;;;3.63;2.27;;;20.00;99.90;;;;;;4994674;28;20651;-87
2023/07/10 05:09:13;;;;;;;3.60;2.20;;;19.90;99.90;;;;;;4997521;28;20230;-88
2023/07/10 05:11:48;;;;;;;3.67;2.50;;;19.80;99.90;;;;;;4987104;28;20241;-88
2023/07/10 05:14:19;;;;;;;3.97;2.37;;;19.70;99.90;;;;;;4992886;28;20208;-89
2023/07/10 05:16:50;;;;;;;6.83;2.07;;;19.60;99.90;;;;;;4987998;28;20206;-89
2023/07/10 05:19:24;;;;;;;3.17;2.10;;;19.50;99.90;;;;;;4980740;28;20202;-89
2023/07/10 05:21:56;;;;;;;6.10;2.50;;;19.30;99.90;;;;;;4991758;28;20677;-85
2023/07/10 05:24:27;;;;;;;3.70;2.10;;;19.20;99.90;;;;;;4980835;28;20209;-89
2023/07/10 05:27:01;;;;;;;4.57;2.20;;;19.10;99.90;;;;;;4980970;28;20253;-88
2023/07/10 05:29:32;;;;;;;3.93;2.00;;;19.10;99.90;;;;;;4992778;28;20244;-88
2023/07/10 05:32:04;;;;;;;5.73;2.30;;;18.90;99.90;;;;;;4991099;28;20245;-87
2023/07/10 05:34:36;;;;;;;5.43;2.43;;;18.80;99.90;;;;;;4993547;28;20213;-87
2023/07/10 05:37:09;;;;;;;5.50;2.37;;;18.70;99.90;;;;;;4995454;28;20206;-89
2023/07/10 05:39:40;;;;;;;5.67;2.27;;;18.70;99.90;;;;;;5000214;28;20209;-89
2023/07/10 05:42:15;;;;;;;5.43;2.30;;;18.60;99.90;;;;;;5001183;28;20217;-86
2023/07/10 05:44:46;;;;;;;5.37;2.20;;;18.50;99.90;;;;;;4999268;28;20202;-89
2023/07/10 05:47:17;;;;;;;5.97;2.33;;;18.50;99.90;;;;;;4998016;28;20217;-86
2023/07/10 05:49:48;;;;;;;4.13;2.20;;;18.40;99.90;;;;;;4998385;28;20269;-89
2023/07/10 05:52:20;;;;;;;7.07;2.43;;;18.30;99.90;;;;;;4997703;28;20217;-89
2023/07/10 05:54:52;;;;;;;5.63;2.43;;;18.30;99.90;;;;;;4998155;28;20214;-88
2023/07/10 05:57:25;;;;;;;4.20;2.20;;;18.10;99.90;;;;;;4997855;28;20647;-89
2023/07/10 05:59:57;;;;;;;7.10;2.63;;;18.00;99.90;;;;;;4983875;28;20207;-90
2023/07/10 06:02:28;;;;;;;4.80;2.07;;;18.00;99.90;;;;;;4977312;28;20664;-89
2023/07/10 06:05:00;;;;;;;5.97;2.73;;;17.90;99.90;;;;;;4996240;28;20211;-89
2023/07/10 06:07:31;;;;;;;4.97;2.60;;;17.80;99.90;;;;;;4985334;28;20293;-87
2023/07/10 06:10:03;;;;;;;3.83;2.40;;;17.70;99.90;;;;;;4996697;28;20261;-88
2023/07/10 06:12:37;;;;;;;4.23;2.43;;;17.60;99.90;;;;;;4996168;28;20248;-88
2023/07/10 06:15:10;;;;;;;9.20;3.07;;;17.70;99.90;;;;;;4997977;28;20221;-89
2023/07/10 06:17:43;;;;;;;5.13;1.93;;;17.60;99.90;;;;;;4983205;28;20237;-87
2023/07/10 06:20:15;;;;;;;8.17;2.30;;;17.40;99.90;;;;;;4992556;28;20206;-89
2023/07/10 06:22:47;;;;;;;4.17;2.30;;;17.40;99.90;;;;;;4996070;28;20214;-89
2023/07/10 06:25:19;;;;;;;8.23;2.73;;;17.30;99.90;;;;;;4992717;28;20223;-89
2023/07/10 06:27:52;;;;;;;3.77;2.50;;;17.20;99.90;;;;;;4976985;28;20259;-90
2023/07/10 06:30:24;;;;;;;5.33;2.60;;;17.20;99.90;;;;;;4990346;28;20222;-89
2023/07/10 06:32:57;;;;;;;6.37;2.53;;;17.10;99.90;;;;;;4995948;28;20237;-89
2023/07/10 06:35:29;;;;;;;7.13;2.70;;;17.10;99.90;;;;;;4996848;28;20284;-88
2023/07/10 06:38:01;;;;;;;3.90;2.67;;;17.10;99.90;;;;;;4987580;28;20230;-88
2023/07/10 06:40:36;;;;;;;4.83;2.70;;;17.10;99.90;;;;;;4997549;28;20217;-87
2023/07/10 06:43:10;;;;;;;4.57;2.50;;;17.00;99.90;;;;;;5016464;28;20214;-89
2023/07/10 06:45:44;;;;;;;4.77;2.43;;;17.00;99.90;;;;;;5016663;28;20182;-89
2023/07/10 06:48:15;;;;;;;5.03;2.30;;;17.00;99.90;;;;;;5002809;28;20297;-89
2023/07/10 06:50:50;;;;;;;5.40;2.50;;;17.00;99.90;;;;;;4996914;28;20717;-89
2023/07/10 06:53:22;;;;;;;10.23;2.73;;;16.90;99.90;;;;;;5000103;28;20281;-90
2023/07/10 06:55:59;;;;;;;5.70;2.47;;;16.80;99.90;;;;;;4997034;28;20221;-88
2023/07/10 06:58:33;;;;;;;4.10;2.40;;;16.90;99.90;;;;;;4995640;28;20209;-88
2023/07/10 07:01:05;;;;;;;4.23;2.33;;;16.80;99.90;;;;;;4994724;28;20205;-89
2023/07/10 07:03:38;;;;;;;5.70;2.37;;;16.70;99.90;;;;;;4995938;28;20213;-89
2023/07/10 07:06:10;;;;;;;6.27;2.47;;;16.70;99.90;;;;;;4975744;28;20257;-88
2023/07/10 07:08:46;;;;;;;5.40;2.60;;;16.70;99.90;;;;;;4976890;28;20215;-89
2023/07/10 07:11:18;;;;;;;9.07;2.87;;;16.60;99.90;;;;;;4993584;28;20317;-89
2023/07/10 07:13:52;;;;;;;4.20;2.10;;;16.50;99.90;;;;;;4995921;28;20222;-88
2023/07/10 07:16:26;;;;;;;4.30;2.33;;;16.50;99.90;;;;;;4995968;28;20252;-88
2023/07/10 07:18:58;;;;;;;6.90;2.60;;;16.40;99.90;;;;;;4995663;28;20269;-89
2023/07/10 07:21:41;;;;;;;8.50;2.40;;;16.30;99.90;;;;;;4995768;28;20214;-90
2023/07/10 07:24:13;;;;;;;6.23;2.40;;;16.20;99.90;;;;;;4996735;28;20289;-88
2023/07/10 07:26:45;;;;;;;4.50;2.17;;;16.20;99.90;;;;;;4995246;28;20194;-88
2023/07/10 07:29:21;;;;;;;6.57;2.40;;;16.20;99.90;;;;;;4976934;28;20650;-89
2023/07/10 07:31:53;;;;;;;5.93;2.23;;;16.20;99.90;;;;;;4975843;28;20207;-88
2023/07/10 07:34:24;;;;;;;4.17;1.83;;;16.20;99.90;;;;;;4976386;28;20245;-88
2023/07/10 07:36:55;;;;;;;4.17;1.77;;;16.30;99.90;;;;;;4987225;28;20221;-88
2023/07/10 07:39:31;;;;;;;3.73;1.60;;;16.30;99.90;;;;;;4995380;28;20210;-88
2023/07/10 07:42:04;;;;;;;1.93;1.40;;;16.30;99.90;;;;;;4995164;28;20293;-89
2023/07/10 07:44:37;;;;;;;3.10;1.60;;;16.30;99.90;;;;;;4996287;28;20242;-89
2023/07/10 07:47:08;;;;;;;3.83;1.60;;;16.20;99.90;;;;;;4979161;28;20205;-88
2023/07/10 07:49:45;;;;;;;2.67;1.40;;;16.20;99.90;;;;;;4995418;28;20290;-88
2023/07/10 07:52:16;;;;;;;2.67;1.60;;;16.20;99.90;;;;;;4994565;28;20666;-88
2023/07/10 07:54:48;;;;;;;3.43;1.47;;;16.10;99.90;;;;;;4988565;28;20670;-88
2023/07/10 07:57:22;;;;;;;2.70;1.33;;;16.20;99.90;;;;;;4976342;28;20211;-89
2023/07/10 07:59:55;;;;;;;3.43;1.53;;;16.20;99.90;;;;;;4993266;28;20270;-88
2023/07/10 08:02:27;;;;;;;1.93;1.37;;;16.20;99.90;;;;;;4995290;28;20216;-88
2023/07/10 08:05:00;;;;;;;1.90;1.30;;;16.20;99.90;;;;;;4979979;28;20883;-88
2023/07/10 08:07:35;;;;;;;3.57;1.73;;;16.20;99.90;;;;;;4995679;28;20202;-89
2023/07/10 08:10:07;;;;;;;2.43;1.60;;;16.10;99.90;;;;;;5013694;28;20284;-89
2023/07/10 08:12:39;;;;;;;2.50;1.20;;;16.00;99.90;;;;;;5012357;28;20193;-90
2023/07/10 08:15:14;;;;;;;4.07;1.10;;;15.90;99.90;;;;;;5012244;28;20226;-88
2023/07/10 08:17:45;;;;;;;3.63;1.40;;;15.80;99.90;;;;;;4997728;28;20221;-87
2023/07/10 08:20:17;;;;;;;3.03;1.00;;;15.70;99.90;;;;;;4997695;28;20235;-88
2023/07/10 08:22:49;;;;;;;1.90;1.10;;;15.60;99.90;;;;;;4997478;28;20222;-88
2023/07/10 08:25:20;;;;;;;1.97;1.00;;;15.60;99.90;;;;;;4995502;28;20627;-88
2023/07/10 08:27:53;;;;;;;1.70;0.93;;;15.50;99.90;;;;;;4995034;28;20202;-88
2023/07/10 08:30:26;;;;;;;2.40;0.90;;;15.40;99.90;;;;;;4982045;28;20238;-88
2023/07/10 08:32:58;;;;;;;1.43;0.90;;;15.40;99.90;;;;;;4977444;28;20207;-88
2023/07/10 08:35:29;;;;;;;1.37;1.00;;;15.30;99.90;;;;;;4981874;28;20266;-89
2023/07/10 08:38:01;;;;;;;1.50;1.07;;;15.30;99.90;;;;;;4987061;28;20275;-89
2023/07/10 08:40:34;;;;;;;1.87;1.10;;;15.30;99.90;;;;;;4987681;28;20716;-88
2023/07/10 08:43:17;;;;;;;1.60;1.00;;;15.30;99.90;;;;;;4996754;28;20226;-88
2023/07/10 08:45:51;;;;;;;1.60;0.87;;;15.20;99.90;;;;;;4974105;28;20809;-88
2023/07/10 08:48:33;;;;;;;1.27;1.10;;;15.20;99.90;;;;;;4990752;28;20210;-89
2023/07/10 08:51:14;;;;;;;3.60;0.87;;;15.20;99.90;;;;;;4972736;28;20576;-89
2023/07/10 08:53:57;;;;;;;2.03;1.03;;;15.20;99.90;;;;;;4988979;28;20214;-89
2023/07/10 08:56:34;;;;;;;2.03;1.20;;;15.20;99.90;;;;;;4986295;28;20245;-88
2023/07/10 08:59:17;;;;;;;1.57;1.07;;;15.10;99.90;;;;;;5000913;28;20240;-89
2023/07/10 09:01:51;;;;;;;0.77;0.70;;;15.10;99.90;;;;;;5004238;28;20211;-88
2023/07/10 09:04:22;;;;;;;0.90;0.90;;;15.10;99.90;;;;;;4996473;28;20250;-88
2023/07/10 09:06:56;;;;;;;2.93;1.07;;;15.00;99.90;;;;;;4983000;28;20558;-88
2023/07/10 09:09:36;;;;;;;1.03;0.90;;;14.90;99.90;;;;;;4985738;28;20214;-89
2023/07/10 09:12:13;;;;;;;1.40;1.00;;;14.90;99.90;;;;;;4979959;28;20295;-87
2023/07/10 09:14:52;;;;;;;1.10;1.00;;;14.90;99.90;;;;;;4994128;28;20205;-88
2023/07/10 09:17:34;;;;;;;3.70;1.13;;;14.90;99.90;;;;;;4984780;28;20225;-89
2023/07/10 09:20:10;;;;;;;1.17;0.93;;;14.80;99.90;;;;;;4978482;28;20202;-89
2023/07/10 09:22:49;;;;;;;3.50;1.13;;;14.80;99.90;;;;;;4991417;28;20206;-88
2023/07/10 09:25:23;;;;;;;3.17;1.07;;;14.70;99.90;;;;;;4981487;28;20206;-88
2023/07/10 09:27:56;;;;;;;2.10;1.00;;;14.60;99.90;;;;;;4985138;28;20654;-88
2023/07/10 09:30:41;;;;;;;1.93;1.00;;;14.50;99.90;;;;;;4993937;28;20298;-87
2023/07/10 09:33:14;;;;;;;1.33;1.00;;;14.50;99.90;;;;;;4978085;28;20302;-88
2023/07/10 09:35:48;;;;;;;1.63;1.00;;;14.40;99.90;;;;;;4994536;28;20241;-88
2023/07/10 09:38:22;;;;;;;1.27;1.00;;;14.40;99.90;;;;;;4978307;28;20738;-89
2023/07/10 09:40:58;;;;;;;2.40;0.80;;;14.30;99.90;;;;;;4985218;28;20224;-89
2023/07/10 09:43:30;;;;;;;1.97;1.07;;;14.40;99.90;;;;;;4991796;28;20210;-88
2023/07/10 09:46:01;;;;;;;1.13;1.00;;;14.30;99.90;;;;;;4989727;28;20210;-88
2023/07/10 09:48:39;;;;;;;1.00;0.93;;;14.20;99.90;;;;;;4990676;28;20213;-89
2023/07/10 09:51:12;;;;;;;1.50;1.20;;;14.20;99.90;;;;;;4991204;28;20724;-89
2023/07/10 09:53:47;;;;;;;2.73;1.40;;;14.10;99.90;;;;;;4991075;28;20217;-89
2023/07/10 09:56:35;;;;;;;3.40;1.17;;;14.00;99.90;;;;;;4991048;28;20567;-89
2023/07/10 09:59:22;;;;;;;2.60;0.93;;;14.00;99.90;;;;;;4986460;28;20297;-88
2023/07/10 10:01:56;;;;;;;2.23;1.00;;;14.00;99.90;;;;;;4978789;28;20221;-87
2023/07/10 10:04:31;;;;;;;1.03;1.00;;;13.90;99.90;;;;;;4990621;28;20218;-88
2023/07/10 10:07:06;;;;;;;3.53;1.00;;;13.90;99.90;;;;;;4990123;28;20576;-88
2023/07/10 10:09:38;;;;;;;2.40;1.10;;;13.90;99.90;;;;;;4993349;28;20781;-88
2023/07/10 10:12:21;;;;;;;1.67;0.90;;;13.80;99.90;;;;;;4990942;28;20261;-89
2023/07/10 10:14:58;;;;;;;1.43;0.90;;;13.90;99.90;;;;;;4989509;28;20258;-91
2023/07/10 10:17:35;;;;;;;4.10;1.20;;;13.80;99.90;;;;;;4973699;28;20277;-88
2023/07/10 10:20:16;;;;;;;1.20;1.00;;;13.70;99.90;;;;;;4992936;28;20218;-88
2023/07/10 10:22:50;;;;;;;1.83;1.20;;;13.70;99.90;;;;;;4973304;28;20274;-87
2023/07/10 10:25:32;;;;;;;1.13;0.90;;;13.70;99.90;;;;;;4987105;28;20206;-90
2023/07/10 10:28:22;;;;;;;3.03;1.20;;;13.60;99.90;;;;;;4992693;28;20209;-88
2023/07/10 10:31:00;;;;;;;1.30;1.00;;;13.60;99.90;;;;;;4995412;28;20230;-89
2023/07/10 10:33:40;;;;;;;2.17;1.20;;;13.70;99.90;;;;;;4993929;28;20330;-87
2023/07/10 10:36:28;;;;;;;1.17;1.00;;;13.70;99.90;;;;;;4985682;28;20290;-88
2023/07/10 10:39:04;;;;;;;2.77;1.30;;;13.70;99.90;;;;;;4985788;28;20202;-90
2023/07/10 10:41:53;;;;;;;1.93;1.20;;;13.70;99.90;;;;;;4996597;28;20245;-87
2023/07/10 10:44:42;;;;;;;2.40;1.00;;;13.80;99.90;;;;;;4996165;28;20214;-88
2023/07/10 10:47:29;;;;;;;1.43;1.20;;;13.70;99.90;;;;;;4997178;28;20309;-89
2023/07/10 10:50:18;;;;;;;1.03;0.93;;;13.80;99.90;;;;;;4982480;28;20206;-90
2023/07/10 10:53:05;;;;;;;1.77;1.07;;;13.70;99.90;;;;;;4983646;28;20245;-89
2023/07/10 10:55:43;;;;;;;1.20;1.10;;;13.80;99.90;;;;;;4995988;28;20322;-88
2023/07/10 10:58:28;;;;;;;1.77;1.30;;;13.80;99.90;;;;;;4996497;28;20209;-87
2023/07/10 11:01:14;;;;;;;1.33;0.80;;;13.90;99.90;;;;;;4993741;28;20796;-89
2023/07/10 11:03:49;;;;;;;1.60;1.03;;;13.90;99.90;;;;;;4991662;28;20203;-88
2023/07/10 11:06:43;;;;;;;1.67;1.20;;;13.90;99.90;;;;;;4993481;28;20633;-89
2023/07/10 11:09:20;;;;;;;1.43;1.20;;;13.90;99.90;;;;;;4989386;28;20237;-89
2023/07/10 11:11:52;;;;;;;1.77;0.90;;;13.80;99.90;;;;;;5002660;28;20256;-89
2023/07/10 11:14:24;;;;;;;2.13;1.27;;;13.90;99.90;;;;;;5000722;28;20212;-89
2023/07/10 11:16:56;;;;;;;2.37;1.17;;;14.10;99.90;;;;;;4989911;28;20630;-88
2023/07/10 11:19:32;;;;;;;1.67;1.20;;;14.10;99.90;;;;;;4997657;28;20203;-88
2023/07/10 11:22:13;;;;;;;1.70;1.07;;;14.10;99.90;;;;;;4978127;28;20206;-89
2023/07/10 11:24:52;;;;;;;1.97;1.17;;;14.00;99.90;;;;;;4987690;28;20237;-89
2023/07/10 11:27:34;;;;;;;1.07;1.00;;;13.90;99.90;;;;;;4994975;28;20285;-87
2023/07/10 11:30:13;;;;;;;1.20;1.10;;;14.00;99.90;;;;;;4992913;28;20202;-88
2023/07/10 11:32:59;;;;;;;3.17;1.53;;;14.00;99.90;;;;;;4975108;28;20306;-89
2023/07/10 11:35:30;;;;;;;2.83;1.03;;;14.10;99.90;;;;;;4991017;28;20310;-87
2023/07/10 11:38:23;;;;;;;3.30;1.40;;;14.10;99.90;;;;;;4986694;28;20203;-88
2023/07/10 11:41:20;;;;;;;1.20;1.10;;;14.10;99.90;;;;;;4977411;28;20201;-88
2023/07/10 11:43:58;;;;;;;1.20;1.10;;;13.90;99.90;;;;;;4990841;28;20207;-89
2023/07/10 11:46:35;;;;;;;2.63;1.30;;;13.90;99.90;;;;;;4984268;28;20388;-89
2023/07/10 11:49:25;;;;;;;2.07;1.27;;;13.80;99.90;;;;;;4994947;28;20203;-89
2023/07/10 11:52:27;;;;;;;2.80;1.27;;;13.80;99.90;;;;;;4974586;28;20269;-89
2023/07/10 11:55:25;;;;;;;2.80;0.97;;;13.80;99.90;;;;;;4980490;28;20588;-88
2023/07/10 11:58:27;;;;;;;2.80;1.30;;;13.80;99.90;;;;;;4994392;28;20228;-89
2023/07/10 12:01:13;;;;;;;2.70;1.30;;;13.70;99.90;;;;;;4993776;28;20273;-90
2023/07/10 12:03:45;;;;;;;2.03;1.20;;;13.80;99.90;;;;;;4994177;28;20630;-89
2023/07/10 12:06:21;;;;;;;1.33;1.03;;;13.70;99.90;;;;;;4994397;28;20282;-88
2023/07/10 12:08:55;;;;;;;1.23;1.10;;;13.80;99.90;;;;;;4983699;28;20244;-89
2023/07/10 12:11:30;;;;;;;3.00;1.20;;;13.80;99.90;;;;;;4986615;28;20780;-89
2023/07/10 12:14:11;;;;;;;1.60;1.13;;;13.70;99.90;;;;;;4989865;28;20952;-88
2023/07/10 12:16:47;;;;;;;1.97;0.90;;;13.60;99.90;;;;;;4994707;28;20206;-88
2023/07/10 12:19:41;;;;;;;3.37;1.13;;;13.60;99.90;;;;;;4993984;28;20553;-88
2023/07/10 12:22:21;;;;;;;1.47;0.90;;;13.50;99.90;;;;;;4994586;28;20206;-91
2023/07/10 12:24:54;;;;;;;1.47;1.17;;;13.40;99.90;;;;;;4994068;28;20328;-90
2023/07/10 12:27:26;;;;;;;1.93;1.30;;;13.40;99.90;;;;;;4994370;28;20203;-89
2023/07/10 12:30:25;;;;;;;2.60;1.13;;;13.40;99.90;;;;;;4974250;28;20211;-88
2023/07/10 12:32:58;;;;;;;1.20;1.10;;;13.40;99.90;;;;;;4972991;28;20249;-88
2023/07/10 12:35:37;;;;;;;1.20;1.10;;;13.50;99.90;;;;;;4985938;28;20217;-89
2023/07/10 12:38:12;;;;;;;1.60;1.10;;;13.50;99.90;;;;;;4993830;28;20207;-88
2023/07/10 12:40:44;;;;;;;1.70;1.07;;;13.70;99.90;;;;;;4995889;28;20198;-89
2023/07/10 12:43:24;;;;;;;4.73;1.17;;;13.70;99.90;;;;;;4997250;28;20210;-89
2023/07/10 12:46:04;;;;;;;4.97;1.30;;;13.70;99.90;;;;;;4994025;28;20246;-90
2023/07/10 12:48:38;;;;;;;1.10;1.00;;;13.70;99.90;;;;;;4993709;28;20318;-90
2023/07/10 12:51:21;;;;;;;1.33;1.07;;;13.70;99.90;;;;;;4988731;28;20207;-89
2023/07/10 12:53:54;;;;;;;2.13;1.20;;;13.70;99.90;;;;;;4974305;28;20238;-90
2023/07/10 12:56:32;;;;;;;2.30;1.10;;;13.70;99.90;;;;;;4992147;28;20301;-87
2023/07/10 12:59:18;;;;;;;2.40;1.33;;;13.70;99.90;;;;;;4993311;28;20206;-87
2023/07/10 13:01:54;;;;;;;2.57;1.10;;;13.90;99.90;;;;;;4986477;28;20221;-88
2023/07/10 13:04:28;;;;;;;2.40;1.27;;;13.90;99.90;;;;;;4994098;28;20218;-89
2023/07/10 13:07:05;;;;;;;2.23;1.33;;;13.80;99.90;;;;;;4992666;28;20256;-88
2023/07/10 13:09:58;;;;;;;1.63;1.10;;;13.90;99.90;;;;;;4974473;28;20663;-88
2023/07/10 13:12:32;;;;;;;2.43;0.90;;;13.80;99.90;;;;;;4979142;28;20241;-88
2023/07/10 13:15:05;;;;;;;3.83;1.53;;;13.80;99.90;;;;;;4986660;28;20207;-89
2023/07/10 13:17:45;;;;;;;2.07;1.33;;;13.80;99.90;;;;;;4986911;28;20210;-89
2023/07/10 13:20:22;;;;;;;1.40;1.30;;;13.70;99.90;;;;;;4996273;28;20205;-89
2023/07/10 13:22:57;;;;;;;1.90;1.27;;;13.80;99.90;;;;;;4996371;28;20224;-88
2023/07/10 13:25:33;;;;;;;1.20;1.10;;;13.70;99.90;;;;;;4989250;28;20237;-90
2023/07/10 13:28:19;;;;;;;2.83;1.03;;;13.80;99.90;;;;;;4992423;28;20217;-89